マプト の空港の天気 - METARとTAF

マプト国際空港 ( FQMA / MPM ) - モザンビーク マプト
飛行場実況気象(Metar)
観測時間02/05 21:00 CAT (02/05 19:00 UTC)
風向・風速南南東 5m/s
視程10km以上
天気現象
全天の4割程度の雲 雲底高度 610m
気温27℃
湿度70%
気圧1012hPa
METARFQMA 051900Z 16010KT 9999 SCT020 27/21 Q1012 NOSIG
過去の天気等 Google飛行場航空写真 Wunderground天気予報

過去48時間のMETAR

飛行場予報(TAF)
発表時間: 2/05 18:00 CAT (2/05 16:00 UTC)
予報対象時間: 5日20時 CAT ~ 7日2時 CAT
風向・風速南 6m/s
視程10km以上
全天の4割程度の雲 雲底高度 610m
6日2時 CAT ~ 6日4時 CAT に徐々に
風向・風速南西 4m/s
6日12時 CAT ~ 6日14時 CAT に徐々に
風向・風速南南東 6m/s
全天の4割程度の雲 雲底高度 460m
全天の8割程度の雲 雲底高度 610m
6日12時 CAT ~ 6日17時 CAT に 確率 30% で一時的に
視程5000m
天気現象弱い雨霧雨
全天の4割程度の雲 雲底高度 370m
6日20時 CAT ~ 6日22時 CAT に徐々に
風向・風速南西 4m/s
TAF FQMA 051600Z 0518/0624 19012KT 9999 SCT020 TX31/0613Z TN22/0603Z
BECMG 0600/0602 23008KT
BECMG 0610/0612 16012KT SCT015 BKN020
PROB30 TEMPO 0610/0615 5000 -RADZ SCT012
BECMG 0618/0620 23008KT